• Join FlightAware (Why Join?)
  • Login
  • US Flag 
01:07AM EDT


 

Airport Tracker/Info


-or-


 

Live Flight TrackerFlight Track Log ✈ SWA657 ✈ 30-Jun-2014 ✈ KPHX - KSLC

Flight Track Log - Related Links

Times and Time Zones

All times are in EDT time to prevent confusion due to time zone crossing. See the SWA657 flight status page for this flight to view local times or setup timezone preferences in your user account.

Time Position Orientation Groundspeed Altitude Reporting Facility
EDT Latitude Longitude Course Direction KTS MPH feet Rate Location/Type
08:37PM 33.4333 -112.1000 269° West 217 250 3,500  Level Phoenix TRACON
08:38PM 33.4333 -112.1667 270° West 242 278 5,800 2,700 Climbing Phoenix TRACON
08:39PM 33.5000 -112.2000 337° Northwest 285 328 9,000 2,700 Climbing Phoenix TRACON
08:40PM 33.5667 -112.1333 40° Northeast 306 352 11,300 2,280 Climbing Phoenix TRACON
08:41PM 33.6497 -112.0697 33° Northeast 342 394 13,800 2,400 Climbing Albuquerque Center
08:42PM 33.7311 -112.0003 35° Northeast 355 409 16,400 2,520 Climbing Albuquerque Center
08:43PM 33.8228 -111.9239 35° Northeast 378 435 19,000 2,580 Climbing Albuquerque Center
08:44PM 33.9183 -111.8419 35° Northeast 391 450 21,800 2,400 Climbing Albuquerque Center
08:45PM 34.0283 -111.8339 North 408 470 24,000 2,100 Climbing Albuquerque Center
08:46PM 34.1517 -111.8508 354° North 411 473 26,200 1,860 Climbing Albuquerque Center
08:47PM 34.2550 -111.8628 355° North 426 490 27,900 1,320 Climbing Albuquerque Center
08:48PM 34.3767 -111.8781 354° North 434 499 29,000 1,260 Climbing Albuquerque Center
08:49PM 34.5214 -111.8967 354° North 434 499 30,600 1,680 Climbing Albuquerque Center
08:50PM 34.6400 -111.9122 354° North 434 499 32,500 1,620 Climbing Albuquerque Center
08:51PM 34.7597 -111.9267 354° North 433 498 34,000 720 Climbing Albuquerque Center
08:52PM 34.8744 -111.9408 354° North 437 503 34,000  Level Albuquerque Center
08:53PM 35.0228 -111.9586 354° North 445 512 34,000  Level Albuquerque Center
08:54PM 35.1467 -111.9747 354° North 445 512 34,000  Level Albuquerque Center
08:55PM 35.2694 -111.9889 355° North 446 513 34,000  Level Albuquerque Center
08:56PM 35.3931 -112.0036 354° North 446 513 34,000  Level Albuquerque Center
08:57PM 35.5156 -112.0206 354° North 446 513 34,000  Level Albuquerque Center
08:58PM 35.6617 -112.0372 355° North 446 513 34,000 480 Level Los Angeles Center
08:59PM 35.7864 -112.0539 354° North 447 514 35,100 960 Climbing Los Angeles Center
09:01PM 35.9106 -112.0706 354° North 449 517 36,000 420 Climbing Los Angeles Center
09:02PM 36.0331 -112.0839 355° North 448 516 36,000  Level Los Angeles Center
09:03PM 36.1567 -112.1006 354° North 449 517 36,000  Level Los Angeles Center
09:04PM 36.2975 -112.1175 354° North 447 514 36,000  Level Los Angeles Center
09:05PM 36.4203 -112.1342 354° North 446 513 36,000  Level Los Angeles Center
09:06PM 36.5428 -112.1492 354° North 446 513 36,000  Level Los Angeles Center
09:07PM 36.6894 -112.1697 354° North 446 513 36,000  Level Los Angeles Center
09:08PM 36.8111 -112.1844 354° North 443 510 36,000  Level Los Angeles Center
09:09PM 36.9319 -112.2003 354° North 442 509 36,000  Level Los Angeles Center
09:10PM 37.0544 -112.2169 354° North 442 509 36,000  Level Los Angeles Center
09:11PM 37.1778 -112.2336 354° North 443 510 36,000 -300 Level Los Angeles Center
09:12PM 37.2994 -112.2494 354° North 443 510 35,400 -1,020 Descending Los Angeles Center
09:13PM 37.4444 -112.2700 354° North 442 509 34,000 -720 Descending Los Angeles Center
09:14PM 37.5656 -112.2867 354° North 441 507 34,000  Level Los Angeles Center
09:15PM 37.6861 -112.3011 355° North 441 507 34,000  Level Los Angeles Center
09:16PM 37.8094 -112.2878 North 447 514 34,000  Level Los Angeles Center
09:17PM 37.9339 -112.2708 North 448 516 34,000  Level Los Angeles Center
09:18PM 38.1308 -112.2436 North 451 519 34,000  Level Salt Lake Center
09:19PM 38.2528 -112.2267 North 447 514 34,000  Level Salt Lake Center
09:21PM 38.3731 -112.2106 North 440 506 34,000  Level Salt Lake Center
09:22PM 38.4942 -112.1922 North 439 505 34,000  Level Salt Lake Center
09:23PM 38.6139 -112.1764 North 438 504 34,000 -300 Level Salt Lake Center
09:24PM 38.7347 -112.1600 North 438 504 33,400 -780 Descending Salt Lake Center
09:25PM 38.8569 -112.1433 North 441 507 32,500 -1,020 Descending Salt Lake Center
09:26PM 39.0033 -112.1225 North 443 510 31,400 -1,080 Descending Salt Lake Center
09:27PM 39.1256 -112.1061 North 442 509 30,300 -1,620 Descending Salt Lake Center
09:28PM 39.2469 -112.0872 North 431 496 28,100 -2,280 Descending Salt Lake Center
09:29PM 39.3622 -112.0711 North 421 484 25,600 -2,340 Descending Salt Lake Center
09:30PM 39.4750 -112.0564 North 406 467 23,400 -2,160 Descending Salt Lake Center
09:31PM 39.5836 -112.0397 North 394 453 21,200 -2,100 Descending Salt Lake Center
09:32PM 39.6867 -112.0256 North 374 430 19,200 -1,860 Descending Salt Lake Center
09:33PM 39.7856 -112.0117 North 360 414 17,400 -2,100 Descending Salt Lake Center
09:33PM 39.8178 -112.0203 348° North 357 411 16,600 -1,980 Descending Salt Lake Center
09:34PM 39.8825 -111.9986 14° North 353 406 15,400 -1,380 Descending Salt Lake Center
09:34PM 39.9258 -112.0008 358° North 343 395 15,100 -1,140 Descending Salt Lake Center
09:35PM 39.9828 -111.9514 34° Northeast 319 367 14,300 -1,320 Descending Salt Lake Center
09:35PM 40.0058 -111.9489 North 316 364 13,800 -1,500 Descending Salt Lake Center
09:36PM 40.0642 -111.9161 23° Northeast 304 350 12,800 -1,560 Descending Salt Lake Center
09:36PM 40.0983 -111.9261 347° North 293 337 12,100 -1,800 Descending Salt Lake Center
09:37PM 40.1461 -111.9231 North 296 341 11,000 -1,800 Descending Salt Lake Center
09:37PM 40.1733 -111.9344 342° North 295 339 10,500 -1,020 Descending Salt Lake Center
09:38PM 40.2283 -111.9331 North 297 342 10,000 -540 Descending Salt Lake Center
09:38PM 40.2547 -111.9436 343° North 293 337 10,000 60 Level Salt Lake Center
09:39PM 40.3075 -111.9428 North 289 333 10,100  Climbing Salt Lake Center
09:39PM 40.3336 -111.9506 347° North 283 326 10,000 -420 Descending Salt Lake Center
09:40PM 40.3853 -111.9503 360° North 278 320 9,700 -720 Descending Salt Lake Center
09:40PM 40.4172 -111.9589 348° North 275 316 9,200 -720 Descending Salt Lake Center
09:41PM 40.4572 -111.9597 359° North 255 293 9,000 -240 Descending Salt Lake Center
09:41PM 40.4833 -111.9675 347° North 238 274 9,000  Level Salt Lake Center
09:42PM 40.5222 -111.9664 North 241 277 9,000 -720 Level Salt Lake Center
09:42PM 40.5558 -111.9739 350° North 234 269 8,300 -1,500 Descending Salt Lake Center
09:43PM 40.6028 -111.9756 358° North 240 276 7,500 -1,140 Descending Salt Lake Center
09:43PM 40.6194 -111.9806 347° North 238 274 7,200 -1,140 Descending Salt Lake Center
09:44PM 40.6603 -111.9825 358° North 209 241 6,400 -1,020 Descending Salt Lake Center
09:44PM 40.6747 -111.9875 345° North 192 221 6,200 -900 Descending Salt Lake Center
09:45PM 40.7086 -111.9875 360° North 176 203 5,500 -900 Descending Salt Lake Center
09:45PM 40.7208 -111.9917 346° North 152 175 5,300 -720 Descending Salt Lake Center
09:46PM 40.7581 -111.9958 355° North 135 155 4,600 -660 Descending Salt Lake Center
09:47PM 40.7869 -111.9967 359° North 144 166 4,200 -540 Descending Salt Lake Center
09:49PM 40.7884 -111.9778 North  Level Estimated